createdAt,value
2019-01-02T00:00:25.492Z,77216.15
2019-01-02T00:02:54.684Z,77215.15
2019-01-02T00:05:23.349Z,77220.16
2019-01-02T00:07:49.634Z,77226.16
2019-01-02T00:10:18.977Z,77238.17
2019-01-02T00:12:45.599Z,77228.16
2019-01-02T00:15:14.671Z,77228.16
2019-01-02T00:17:43.872Z,77236.17
2019-01-02T00:20:13.905Z,77246.17
2019-01-02T00:22:42.617Z,77251.18
2019-01-02T00:25:11.529Z,77253.19
2019-01-02T00:27:37.460Z,77253.19
2019-01-02T00:30:07.186Z,77247.17
2019-01-02T00:32:36.027Z,77244.17
2019-01-02T00:35:01.913Z,77253.19
2019-01-02T00:37:28.110Z,77251.18
2019-01-02T00:39:56.824Z,77247.17
2019-01-02T00:42:25.893Z,77244.17
2019-01-02T00:44:54.817Z,77240.17
2019-01-02T00:47:24.043Z,77242.17
2019-01-02T00:49:52.948Z,77251.18
2019-01-02T00:52:19.232Z,77240.17
2019-01-02T00:54:45.122Z,77241.17
2019-01-02T00:57:11.864Z,77247.17
2019-01-02T00:59:37.764Z,77253.19
2019-01-02T01:02:03.648Z,77256.19
2019-01-02T01:04:29.557Z,77264.19
2019-01-02T01:06:55.443Z,77257.19
2019-01-02T01:09:21.742Z,77249.18
2019-01-02T01:11:50.654Z,77250.18
2019-01-02T01:14:19.248Z,77255.19
2019-01-02T01:16:45.147Z,77261.19
2019-01-02T01:19:11.348Z,77273.20
2019-01-02T01:21:39.997Z,77265.20
2019-01-02T01:24:06.442Z,77261.19
2019-01-02T01:26:32.345Z,77264.19
2019-01-02T01:28:58.291Z,77267.20
2019-01-02T01:31:27.596Z,77268.20
2019-01-02T01:33:56.524Z,77266.20
2019-01-02T01:36:22.807Z,77272.20
2019-01-02T01:38:51.513Z,77276.20
2019-01-02T01:41:18.210Z,77274.20
2019-01-02T01:43:44.344Z,77283.21
2019-01-02T01:46:10.609Z,77278.20
2019-01-02T01:48:36.853Z,77277.20
2019-01-02T01:51:03.138Z,77285.21
2019-01-02T01:53:29.071Z,77292.22
2019-01-02T01:55:55.373Z,77295.22
2019-01-02T01:58:21.312Z,77297.23
2019-01-02T02:00:50.713Z,77291.22
2019-01-02T02:03:20.086Z,77291.22
2019-01-02T02:05:46.351Z,77286.21
2019-01-02T02:08:15.299Z,77294.22
2019-01-02T02:10:41.246Z,77298.23
2019-01-02T02:13:10.124Z,77302.23
2019-01-02T02:15:36.024Z,77301.23
2019-01-02T02:18:01.934Z,77301.23
2019-01-02T02:20:30.604Z,77300.23
2019-01-02T02:23:00.094Z,77299.23
2019-01-02T02:25:26.443Z,77304.23
2019-01-02T02:27:55.509Z,77305.23
2019-01-02T02:30:21.524Z,77306.23
2019-01-02T02:32:53.633Z,77308.23
2019-01-02T02:35:19.542Z,77309.23
2019-01-02T02:37:48.557Z,77311.23
2019-01-02T02:40:20.568Z,77307.23
2019-01-02T02:42:48.429Z,77307.23
2019-01-02T02:45:20.632Z,77299.23
2019-01-02T02:47:49.246Z,77299.23
2019-01-02T02:50:18.282Z,77307.23
2019-01-02T02:52:44.472Z,77306.23
2019-01-02T02:55:11.770Z,77291.22
2019-01-02T02:57:40.688Z,77299.23
2019-01-02T03:00:10.890Z,77307.23
2019-01-02T03:02:39.638Z,77301.23
2019-01-02T03:05:09.569Z,77297.23
2019-01-02T03:07:38.905Z,77305.23
2019-01-02T03:10:12.324Z,77297.23
2019-01-02T03:12:38.558Z,77312.23
2019-01-02T03:15:06.770Z,77309.23
2019-01-02T03:17:35.428Z,77302.23
2019-01-02T03:20:01.529Z,77305.23
2019-01-02T03:22:30.820Z,77304.23
2019-01-02T03:24:57.683Z,77301.23
2019-01-02T03:27:24.083Z,77311.23
2019-01-02T03:29:53.632Z,77319.25
2019-01-02T03:32:22.298Z,77311.23
2019-01-02T03:34:48.735Z,77307.23
2019-01-02T03:37:18.721Z,77313.23
2019-01-02T03:39:49.291Z,77317.24
2019-01-02T03:42:15.188Z,77309.23
2019-01-02T03:44:44.318Z,77316.24
2019-01-02T03:47:10.271Z,77323.25
2019-01-02T03:49:36.161Z,77319.25
2019-01-02T03:52:02.057Z,77315.24
2019-01-02T03:54:27.947Z,77318.25
2019-01-02T03:56:53.855Z,77336.27
2019-01-02T03:59:19.746Z,77333.26
2019-01-02T04:01:45.642Z,77337.27
2019-01-02T04:04:14.583Z,77340.27
2019-01-02T04:06:40.474Z,77338.27
2019-01-02T04:09:09.507Z,77340.27
2019-01-02T04:11:35.497Z,77345.27
2019-01-02T04:14:04.433Z,77340.27
2019-01-02T04:16:30.327Z,77347.27
2019-01-02T04:18:56.267Z,77333.26
2019-01-02T04:21:25.198Z,77344.27
2019-01-02T04:23:54.137Z,77345.27
2019-01-02T04:26:23.125Z,77340.27
2019-01-02T04:28:51.790Z,77357.28
2019-01-02T04:31:24.009Z,77366.29
2019-01-02T04:33:49.896Z,77359.28
2019-01-02T04:36:15.841Z,77359.28
2019-01-02T04:38:41.743Z,77368.29
2019-01-02T04:41:07.686Z,77369.30
2019-01-02T04:43:36.816Z,77375.30
2019-01-02T04:46:02.705Z,77371.30
2019-01-02T04:48:28.611Z,77383.30
2019-01-02T04:50:57.541Z,77387.31
2019-01-02T04:53:26.465Z,77388.31
2019-01-02T04:55:55.734Z,77395.31
2019-01-02T04:58:24.733Z,77392.31
2019-01-02T05:00:53.420Z,77394.31
2019-01-02T05:03:22.517Z,77401.33
2019-01-02T05:05:48.400Z,77403.33
2019-01-02T05:08:18.121Z,77402.33
2019-01-02T05:10:49.061Z,77408.33
2019-01-02T05:13:18.154Z,77401.33
2019-01-02T05:15:49.589Z,77407.33
2019-01-02T05:18:15.535Z,77410.33
2019-01-02T05:20:41.428Z,77403.33
2019-01-02T05:23:07.377Z,77410.33
2019-01-02T05:25:33.303Z,77404.33
2019-01-02T05:27:59.236Z,77415.34
2019-01-02T05:30:25.190Z,77410.33
2019-01-02T05:32:54.132Z,77402.33
2019-01-02T05:35:20.068Z,77420.34
2019-01-02T05:37:48.819Z,77414.34
2019-01-02T05:40:15.862Z,77424.34
2019-01-02T05:42:44.868Z,77422.34
2019-01-02T05:45:13.798Z,77423.34
2019-01-02T05:47:40.760Z,77423.34
2019-01-02T05:50:07.358Z,77449.37
2019-01-02T05:52:33.262Z,77438.36
2019-01-02T05:54:59.162Z,77455.38
2019-01-02T05:57:25.064Z,77466.39
2019-01-02T05:59:50.971Z,77472.39
2019-01-02T06:02:17.948Z,77474.39
2019-01-02T06:04:43.864Z,77479.40
2019-01-02T06:07:09.787Z,77485.41
2019-01-02T06:09:35.692Z,77472.39
2019-01-02T06:12:01.621Z,77479.40
2019-01-02T06:14:30.591Z,77481.40
2019-01-02T06:16:59.536Z,77483.41
2019-01-02T06:19:25.437Z,77498.42
2019-01-02T06:21:54.384Z,77484.41
2019-01-02T06:24:20.669Z,77491.41
2019-01-02T06:26:46.575Z,77501.42
2019-01-02T06:29:15.392Z,77501.42
2019-01-02T06:31:44.107Z,77495.41
2019-01-02T06:34:13.033Z,77506.42
2019-01-02T06:36:38.938Z,77505.42
2019-01-02T06:39:07.886Z,77510.43
2019-01-02T06:41:36.906Z,77518.44
2019-01-02T06:44:02.820Z,77515.44
2019-01-02T06:46:31.873Z,77521.44
2019-01-02T06:49:00.814Z,77531.45
2019-01-02T06:51:26.777Z,77527.45
2019-01-02T06:53:52.629Z,77531.45
2019-01-02T06:56:18.943Z,77541.46
2019-01-02T06:58:45.188Z,77538.45
2019-01-02T07:01:13.839Z,77554.47
2019-01-02T07:03:42.969Z,77556.48
2019-01-02T07:06:08.861Z,77565.48
2019-01-02T07:08:34.775Z,77571.48
2019-01-02T07:11:00.660Z,77571.48
2019-01-02T07:13:26.560Z,77585.51
2019-01-02T07:15:52.443Z,77579.50
2019-01-02T07:18:21.368Z,77581.50
2019-01-02T07:20:49.186Z,77596.52
2019-01-02T07:23:17.916Z,77608.53
2019-01-02T07:25:44.730Z,77594.52
2019-01-02T07:28:10.668Z,77606.53
2019-01-02T07:30:36.562Z,77612.53
2019-01-02T07:33:05.512Z,77616.54
2019-01-02T07:35:49.945Z,77621.55
2019-01-02T07:38:26.821Z,77636.56
2019-01-02T07:41:06.688Z,77641.56
2019-01-02T07:43:46.428Z,77642.56
2019-01-02T07:46:29.156Z,77646.56
2019-01-02T07:49:13.584Z,77652.58
2019-01-02T07:51:58.047Z,77651.58
2019-01-02T07:54:43.993Z,77652.58
2019-01-02T07:57:13.130Z,77650.57
2019-01-02T07:59:56.423Z,77659.58
2019-01-02T08:02:41.198Z,77671.59
2019-01-02T08:05:18.403Z,77674.59
2019-01-02T08:07:49.425Z,77685.61
2019-01-02T08:10:19.895Z,77682.61
2019-01-02T08:12:56.748Z,77679.60
2019-01-02T08:15:36.555Z,77683.61
2019-01-02T08:18:13.347Z,77687.61
2019-01-02T08:20:49.324Z,77686.61
2019-01-02T08:23:26.450Z,77687.61
2019-01-02T08:25:57.346Z,77695.63
2019-01-02T08:28:34.259Z,77683.61
2019-01-02T08:31:08.204Z,77690.61
2019-01-02T08:33:48.143Z,77679.60
2019-01-02T08:36:15.923Z,77692.62
2019-01-02T08:38:58.865Z,77686.61
2019-01-02T08:41:29.438Z,77707.63
2019-01-02T08:44:00.172Z,77745.67
2019-01-02T08:46:30.969Z,77759.69
2019-01-02T08:49:07.675Z,77763.69
2019-01-02T08:51:35.520Z,77768.70
2019-01-02T08:54:21.737Z,77772.70
2019-01-02T08:57:07.712Z,77781.71
2019-01-02T08:59:48.070Z,77784.72
2019-01-02T09:02:25.122Z,77790.72
2019-01-02T09:05:02.025Z,77798.73
2019-01-02T09:07:29.858Z,77795.73
2019-01-02T09:10:00.844Z,77806.73
2019-01-02T09:12:43.722Z,77820.75
2019-01-02T09:18:36.842Z,77815.75
2019-01-02T09:21:13.957Z,77816.75
2019-01-02T09:23:41.759Z,77822.75
2019-01-02T09:26:09.927Z,77829.77
2019-01-02T09:28:49.764Z,77824.76
2019-01-02T09:34:45.550Z,77831.77
2019-01-02T09:37:29.961Z,77834.77
2019-01-02T09:40:15.964Z,77842.78
2019-01-02T09:52:18.674Z,77856.79
2019-01-02T10:11:07.675Z,77889.83
2019-01-02T10:13:38.190Z,77891.83
2019-01-02T10:16:15.389Z,77892.83
2019-01-02T10:19:01.630Z,77900.84
2019-01-02T10:21:44.699Z,77896.84
2019-01-02T10:24:24.774Z,77887.83
2019-01-02T10:26:58.811Z,77904.84
2019-01-02T10:29:29.465Z,77910.85
2019-01-02T10:32:12.438Z,77907.84
2019-01-02T10:34:40.267Z,77913.86
2019-01-02T10:37:17.493Z,77915.86
2019-01-02T10:39:45.431Z,77907.84
2019-01-02T10:42:22.217Z,77911.85
2019-01-02T10:45:08.399Z,77913.86
2019-01-02T10:47:39.463Z,77910.85
2019-01-02T10:50:19.314Z,77920.86
2019-01-02T10:52:56.468Z,77923.87
2019-01-02T10:55:33.640Z,77916.86
2019-01-02T10:58:04.643Z,77910.85
2019-01-02T11:00:49.328Z,77918.86
2019-01-02T11:03:19.990Z,77909.85
2019-01-02T11:05:50.564Z,77897.84
2019-01-02T11:08:27.272Z,77916.86
2019-01-02T11:11:13.468Z,77927.88
2019-01-02T11:13:44.340Z,77937.88
2019-01-02T11:16:21.315Z,77944.89
2019-01-02T11:18:58.240Z,77947.89
2019-01-02T11:21:28.806Z,77939.88
2019-01-02T11:24:14.863Z,77934.88
2019-01-02T11:26:46.453Z,77943.89
2019-01-02T11:29:23.335Z,77938.88
2019-01-02T11:32:08.124Z,77944.89
2019-01-02T11:34:44.779Z,77943.89
2019-01-02T11:37:30.687Z,77944.89
2019-01-02T11:40:07.691Z,77948.89
2019-01-02T11:42:38.291Z,77953.90
2019-01-02T11:45:05.174Z,77958.91
2019-01-02T11:47:31.478Z,77956.91
2019-01-02T11:50:00.445Z,77952.90
2019-01-02T11:52:26.778Z,77953.90
2019-01-02T11:54:55.439Z,77957.91
2019-01-02T11:57:21.389Z,77949.89
2019-01-02T11:59:50.335Z,77962.91
2019-01-02T12:02:16.253Z,77954.90
2019-01-02T12:04:42.654Z,77969.92
2019-01-02T12:07:09.016Z,77967.92
2019-01-02T12:09:34.918Z,77959.91
2019-01-02T12:12:00.818Z,77959.91
2019-01-02T12:14:26.696Z,77964.91
2019-01-02T12:16:52.601Z,77966.91
2019-01-02T12:19:18.509Z,77975.92
2019-01-02T12:21:44.400Z,77974.92
2019-01-02T12:24:10.307Z,77985.94
2019-01-02T12:26:36.208Z,77984.94
2019-01-02T12:29:02.173Z,77992.95
2019-01-02T12:31:28.479Z,77989.94
2019-01-02T12:33:54.937Z,77991.94
2019-01-02T12:36:20.847Z,77995.95
2019-01-02T12:38:47.587Z,77995.95
2019-01-02T12:41:13.549Z,77985.94
2019-01-02T12:43:42.726Z,78004.95
2019-01-02T12:46:11.501Z,78002.95
2019-01-02T12:48:40.482Z,78005.95
2019-01-02T12:51:06.484Z,78007.96
2019-01-02T12:53:32.838Z,78026.98
2019-01-02T12:56:01.746Z,78021.98
2019-01-02T12:58:30.634Z,77998.95
2019-01-02T13:00:57.615Z,78025.98
2019-01-02T13:03:25.425Z,78034.99
2019-01-02T13:05:56.013Z,78029.98
2019-01-02T13:08:23.866Z,78029.98
2019-01-02T13:10:51.704Z,78023.98
2019-01-02T13:13:34.619Z,78038.00
2019-01-02T13:16:05.399Z,78040.00
2019-01-02T13:18:39.251Z,78053.02
2019-01-02T13:21:19.402Z,78042.00
2019-01-02T13:23:50.062Z,78042.00
2019-01-02T13:26:23.171Z,78046.00
2019-01-02T13:29:02.964Z,78035.99
2019-01-02T13:31:33.879Z,78046.00
2019-01-02T13:34:10.795Z,78052.02
2019-01-02T13:36:41.781Z,78048.00
2019-01-02T13:39:16.179Z,78059.02
2019-01-02T13:42:00.957Z,78062.02
2019-01-02T13:44:31.810Z,78058.02
2019-01-02T13:47:18.200Z,78063.02
2019-01-02T13:49:49.030Z,78072.03
2019-01-02T13:52:15.255Z,78080.05
2019-01-02T13:54:41.180Z,78074.04
2019-01-02T13:57:07.066Z,78081.05
2019-01-02T13:59:32.968Z,78075.04
2019-01-02T14:02:01.702Z,78077.05
2019-01-02T14:04:27.603Z,78083.05
2019-01-02T14:06:56.540Z,78087.05
2019-01-02T14:09:25.707Z,78084.05
2019-01-02T14:11:54.605Z,78084.05
2019-01-02T14:14:23.765Z,78083.05
2019-01-02T14:16:52.716Z,78084.05
2019-01-02T14:19:21.929Z,78068.03
2019-01-02T14:21:50.858Z,78091.06
2019-01-02T14:24:17.503Z,78086.05
2019-01-02T14:26:48.701Z,78078.05
2019-01-02T14:29:20.004Z,78076.04
2019-01-02T14:31:45.904Z,78080.05
2019-01-02T14:34:14.576Z,78085.05
2019-01-02T14:36:43.539Z,78083.05
2019-01-02T14:39:12.553Z,78100.06
2019-01-02T14:41:41.520Z,78096.06
2019-01-02T14:44:07.831Z,78102.07
2019-01-02T14:46:36.494Z,78100.06
2019-01-02T14:49:02.453Z,78108.08
2019-01-02T14:51:32.866Z,78110.08
2019-01-02T14:53:59.199Z,78117.09
2019-01-02T14:56:25.092Z,78120.09
2019-01-02T14:58:51.159Z,78134.11
2019-01-02T15:01:19.832Z,78128.09
2019-01-02T15:03:45.723Z,78133.11
2019-01-02T15:06:11.626Z,78132.11
2019-01-02T15:08:37.533Z,78128.09
2019-01-02T15:11:08.219Z,78135.11
2019-01-02T15:13:31.128Z,78148.13
2019-01-02T15:15:56.995Z,78157.13
2019-01-02T15:18:26.097Z,78156.13
2019-01-02T15:20:54.741Z,78168.15
2019-01-02T15:23:23.599Z,78166.14
2019-01-02T15:25:52.505Z,78167.15
2019-01-02T15:28:18.489Z,78165.14
2019-01-02T15:30:50.522Z,78174.16
2019-01-02T15:33:19.440Z,78184.17
2019-01-02T15:35:49.057Z,78182.16
2019-01-02T15:38:18.200Z,78181.16
2019-01-02T15:40:49.850Z,78187.17
2019-01-02T15:43:15.736Z,78195.18
2019-01-02T15:45:44.631Z,78182.16
2019-01-02T15:48:10.862Z,78193.17
2019-01-02T15:50:36.760Z,78193.17
2019-01-02T15:53:02.681Z,78192.17
2019-01-02T15:55:31.953Z,78204.19
2019-01-02T15:58:00.983Z,78214.20
2019-01-02T16:00:29.684Z,78202.19
2019-01-02T16:02:58.757Z,78216.20
2019-01-02T16:05:24.654Z,78215.20
2019-01-02T16:07:50.539Z,78214.20
2019-01-02T16:10:16.594Z,78212.20
2019-01-02T16:12:47.371Z,78213.20
2019-01-02T16:15:11.924Z,78228.22
2019-01-02T16:17:38.962Z,78232.22
2019-01-02T16:20:06.865Z,78230.22
2019-01-02T16:22:34.161Z,78221.21
2019-01-02T16:25:00.233Z,78241.23
2019-01-02T16:27:26.503Z,78242.23
2019-01-02T16:29:52.392Z,78245.23
2019-01-02T16:32:18.639Z,78235.23
2019-01-02T16:34:45.151Z,78246.23
2019-01-02T16:37:12.046Z,78246.23
2019-01-02T16:39:40.501Z,78263.27
2019-01-02T16:42:07.482Z,78261.27
2019-01-02T16:44:34.597Z,78269.27
2019-01-02T16:47:01.676Z,78272.27
2019-01-02T16:49:28.468Z,78257.25
2019-01-02T16:51:55.140Z,78267.27
2019-01-02T16:54:24.982Z,78260.26
2019-01-02T16:56:51.450Z,78259.26
2019-01-02T16:59:19.968Z,78272.27
2019-01-02T17:01:50.165Z,78262.27
2019-01-02T17:04:18.627Z,78279.28
2019-01-02T17:06:45.185Z,78278.28
2019-01-02T17:09:13.012Z,78264.27
2019-01-02T17:11:39.721Z,78289.30
2019-01-02T17:14:06.041Z,78280.28
2019-01-02T17:16:34.692Z,78285.29
2019-01-02T17:19:03.754Z,78282.28
2019-01-02T17:21:32.735Z,78279.28
2019-01-02T17:23:58.676Z,78288.30
2019-01-02T17:26:24.635Z,78289.30
2019-01-02T17:28:51.526Z,78295.30
2019-01-02T17:31:20.299Z,78302.31
2019-01-02T17:33:46.371Z,78301.31
2019-01-02T17:36:12.676Z,78304.31
2019-01-02T17:38:39.254Z,78298.30
2019-01-02T17:41:06.563Z,78296.30
2019-01-02T17:43:32.468Z,78298.30
2019-01-02T17:46:01.790Z,78303.31
2019-01-02T17:48:30.502Z,78305.31
2019-01-02T17:50:56.608Z,78312.32
2019-01-02T17:53:24.918Z,78310.32
2019-01-02T17:55:54.594Z,78314.33
2019-01-02T17:58:21.232Z,78323.34
2019-01-02T18:00:51.413Z,78322.33
2019-01-02T18:03:20.108Z,78324.34
2019-01-02T18:05:49.299Z,78321.33
2019-01-02T18:08:16.353Z,78320.33
2019-01-02T18:10:43.485Z,78336.35
2019-01-02T18:13:10.209Z,78335.34
2019-01-02T18:15:41.571Z,78346.36
2019-01-02T18:18:11.225Z,78336.35
2019-01-02T18:20:37.586Z,78336.35
2019-01-02T18:23:05.052Z,78342.36
2019-01-02T18:25:36.700Z,78337.35
2019-01-02T18:28:06.893Z,78332.34
2019-01-02T18:30:34.050Z,78349.37
2019-01-02T18:33:01.216Z,78344.36
2019-01-02T18:35:30.164Z,78344.36
2019-01-02T18:37:59.457Z,78357.38
2019-01-02T18:40:28.119Z,78357.38
2019-01-02T18:42:54.045Z,78358.38
2019-01-02T18:45:22.970Z,78370.39
2019-01-02T18:47:48.903Z,78368.39
2019-01-02T18:50:15.170Z,78365.39
2019-01-02T18:52:44.400Z,78375.40
2019-01-02T18:55:11.915Z,78381.41
2019-01-02T18:57:38.697Z,78377.41
2019-01-02T19:00:07.598Z,78384.41
2019-01-02T19:02:34.278Z,78385.41
2019-01-02T19:05:01.476Z,78385.41
2019-01-02T19:07:28.051Z,78384.41
2019-01-02T19:09:58.248Z,78388.41
2019-01-02T19:12:28.001Z,78390.42
2019-01-02T19:14:54.495Z,78392.42
2019-01-02T19:17:22.355Z,78396.42
2019-01-02T19:19:49.086Z,78391.42
2019-01-02T19:22:15.731Z,78399.43
2019-01-02T19:24:42.467Z,78399.43
2019-01-02T19:27:09.643Z,78400.43
2019-01-02T19:29:36.425Z,78401.44
2019-01-02T19:32:03.391Z,78407.44
2019-01-02T19:34:32.641Z,78404.44
2019-01-02T19:36:59.172Z,78404.44
2019-01-02T19:39:25.626Z,78410.44
2019-01-02T19:41:52.957Z,78412.45
2019-01-02T19:44:21.389Z,78412.45
2019-01-02T19:46:49.127Z,78412.45
2019-01-02T19:49:16.085Z,78410.44
2019-01-02T19:51:44.455Z,78411.45
2019-01-02T19:54:11.153Z,78418.45
2019-01-02T19:56:37.868Z,78416.45
2019-01-02T19:59:05.336Z,78428.47
2019-01-02T20:01:34.864Z,78421.45
2019-01-02T20:04:01.390Z,78415.45
2019-01-02T20:06:28.064Z,78418.45
2019-01-02T20:08:54.742Z,78418.45
2019-01-02T20:11:21.607Z,78423.45
2019-01-02T20:13:51.252Z,78426.46
2019-01-02T20:16:20.803Z,78425.46
2019-01-02T20:18:49.472Z,78422.45
2019-01-02T20:21:15.525Z,78419.45
2019-01-02T20:23:44.483Z,78420.45
2019-01-02T20:26:10.596Z,78426.46
2019-01-02T20:28:36.516Z,78424.46
2019-01-02T20:31:02.411Z,78424.46
2019-01-02T20:33:28.342Z,78430.47
2019-01-02T20:35:54.255Z,78428.47
2019-01-02T20:38:20.192Z,78420.45
2019-01-02T20:40:46.241Z,78424.46
2019-01-02T20:43:15.749Z,78430.47
2019-01-02T20:45:44.999Z,78430.47
2019-01-02T20:48:10.887Z,78436.48
2019-01-02T20:50:39.589Z,78432.47
2019-01-02T20:53:08.895Z,78437.48
2019-01-02T20:55:34.825Z,78436.48
2019-01-02T20:58:00.746Z,78428.47
2019-01-02T21:00:29.411Z,78432.47
2019-01-02T21:02:58.569Z,78424.46
2019-01-02T21:05:24.471Z,78420.45
2019-01-02T21:07:50.704Z,78421.45
2019-01-02T21:10:19.415Z,78426.46
2019-01-02T21:12:48.360Z,78420.45
2019-01-02T21:15:14.273Z,78424.46
2019-01-02T21:17:40.558Z,78418.45
2019-01-02T21:20:06.904Z,78418.45
2019-01-02T21:22:35.849Z,78420.45
2019-01-02T21:25:01.875Z,78425.46
2019-01-02T21:27:27.748Z,78429.47
2019-01-02T21:29:53.941Z,78430.47
2019-01-02T21:32:22.740Z,78436.48
2019-01-02T21:34:48.643Z,78427.47
2019-01-02T21:37:14.647Z,78434.47
2019-01-02T21:39:40.861Z,78431.47
2019-01-02T21:42:09.591Z,78438.48
2019-01-02T21:44:38.711Z,78434.47
2019-01-02T21:47:04.661Z,78440.48
2019-01-02T21:49:33.878Z,78437.48
2019-01-02T21:51:59.808Z,78440.48
2019-01-02T21:54:25.714Z,78445.48
2019-01-02T21:56:52.013Z,78434.47
2019-01-02T21:59:17.905Z,78438.48
2019-01-02T22:01:44.223Z,78432.47
2019-01-02T22:04:10.464Z,78441.48
2019-01-02T22:06:36.358Z,78440.48
2019-01-02T22:09:05.097Z,78449.49
2019-01-02T22:11:31.150Z,78453.50
2019-01-02T22:14:00.062Z,78452.50
2019-01-02T22:16:28.960Z,78437.48
2019-01-02T22:18:54.874Z,78433.47
2019-01-02T22:21:23.944Z,78431.47
2019-01-02T22:23:49.842Z,78418.45
2019-01-02T22:26:15.745Z,78427.47
2019-01-02T22:28:41.659Z,78433.47
2019-01-02T22:31:07.562Z,78436.48
2019-01-02T22:33:33.467Z,78452.50
2019-01-02T22:35:59.693Z,78456.50
2019-01-02T22:38:25.596Z,78453.50
2019-01-02T22:40:51.520Z,78452.50
2019-01-02T22:43:20.192Z,78450.49
2019-01-02T22:45:46.099Z,78460.51
2019-01-02T22:48:12.002Z,78462.52
2019-01-02T22:50:37.979Z,78456.50
2019-01-02T22:53:03.828Z,78458.50
2019-01-02T22:55:32.797Z,78461.51
2019-01-02T22:57:59.081Z,78464.52
2019-01-02T23:00:36.102Z,78470.52
2019-01-02T23:03:03.945Z,78481.53
2019-01-02T23:05:50.121Z,78481.53
2019-01-02T23:08:34.437Z,78474.52
2019-01-02T23:11:04.905Z,78484.54
2019-01-02T23:13:32.859Z,78480.53
2019-01-02T23:16:12.881Z,78487.55
2019-01-02T23:18:43.294Z,78488.55
2019-01-02T23:21:14.180Z,78486.54
2019-01-02T23:23:53.973Z,78483.53
2019-01-02T23:26:38.182Z,78491.55
2019-01-02T23:29:08.652Z,78498.55
2019-01-02T23:31:45.697Z,78496.55
2019-01-02T23:34:13.947Z,78498.55
2019-01-02T23:36:58.527Z,78494.55
2019-01-02T23:39:41.332Z,78488.55
2019-01-02T23:42:11.770Z,78499.55
2019-01-02T23:44:48.499Z,78505.56
2019-01-02T23:47:22.568Z,78502.56
2019-01-02T23:49:56.483Z,78508.56
2019-01-02T23:52:30.077Z,78502.56
2019-01-02T23:55:00.753Z,78509.57
2019-01-02T23:57:48.702Z,78516.58
